createdAt,value
2023-02-05T00:00:20.733Z,96829.69
2023-02-05T00:01:22.394Z,96846.56
2023-02-05T00:02:24.017Z,96834.16
2023-02-05T00:03:25.620Z,96833.88
2023-02-05T00:04:27.205Z,96840.47
2023-02-05T00:05:28.773Z,96836.50
2023-02-05T00:06:30.630Z,96838.59
2023-02-05T00:07:32.149Z,96828.59
2023-02-05T00:08:34.840Z,96834.88
2023-02-05T00:09:36.903Z,96836.44
2023-02-05T00:10:38.453Z,96843.78
2023-02-05T00:11:40.054Z,96821.97
2023-02-05T00:12:41.682Z,96823.78
2023-02-05T00:13:43.639Z,96825.88
2023-02-05T00:14:45.253Z,96827.97
2023-02-05T00:15:47.148Z,96825.31
2023-02-05T00:16:48.809Z,96831.66
2023-02-05T00:17:50.454Z,96825.31
2023-02-05T00:18:52.886Z,96827.41
2023-02-05T00:19:54.447Z,96837.13
2023-02-05T00:20:56.006Z,96832.94
2023-02-05T00:21:57.582Z,96837.41
2023-02-05T00:22:59.413Z,96816.13
2023-02-05T00:24:01.050Z,96839.50
2023-02-05T00:25:02.671Z,96826.84
2023-02-05T00:26:05.227Z,96833.94
2023-02-05T00:27:07.426Z,96840.53
2023-02-05T00:28:08.993Z,96835.25
2023-02-05T00:29:10.562Z,96828.97
2023-02-05T00:30:12.709Z,96834.22
2023-02-05T00:31:18.079Z,96824.50
2023-02-05T00:32:19.754Z,96825.28
2023-02-05T00:33:22.019Z,96838.41
2023-02-05T00:34:23.696Z,96835.28
2023-02-05T00:35:25.331Z,96827.41
2023-02-05T00:36:27.541Z,96827.91
2023-02-05T00:37:29.097Z,96843.66
2023-02-05T00:38:30.691Z,96839.72
2023-02-05T00:39:32.228Z,96840.53
2023-02-05T00:40:33.776Z,96848.41
2023-02-05T00:41:36.430Z,96837.34
2023-02-05T00:42:38.119Z,96838.69
2023-02-05T00:43:40.915Z,96842.09
2023-02-05T00:44:42.474Z,96844.19
2023-02-05T00:45:44.099Z,96849.97
2023-02-05T00:46:45.664Z,96846.03
2023-02-05T00:47:47.240Z,96838.94
2023-02-05T00:48:48.873Z,96847.84
2023-02-05T00:49:50.461Z,96844.72
2023-02-05T00:50:53.127Z,96849.44
2023-02-05T00:51:54.679Z,96851.03
2023-02-05T00:52:56.349Z,96852.63
2023-02-05T00:53:57.916Z,96853.41
2023-02-05T00:54:59.500Z,96851.03
2023-02-05T00:56:01.098Z,96851.53
2023-02-05T00:57:02.863Z,96843.38
2023-02-05T00:58:04.458Z,96854.13
2023-02-05T00:59:05.986Z,96851.00
2023-02-05T01:00:09.036Z,96841.53
2023-02-05T01:01:10.742Z,96843.59
2023-02-05T01:02:12.391Z,96854.13
2023-02-05T01:03:14.332Z,96852.03
2023-02-05T01:04:15.960Z,96846.78
2023-02-05T01:05:17.628Z,96843.38
2023-02-05T01:06:19.317Z,96846.28
2023-02-05T01:07:20.940Z,96839.44
2023-02-05T01:08:22.482Z,96849.41
2023-02-05T01:09:24.072Z,96844.41
2023-02-05T01:10:25.921Z,96854.41
2023-02-05T01:11:27.510Z,96857.28
2023-02-05T01:12:29.049Z,96850.44
2023-02-05T01:13:30.653Z,96857.28
2023-02-05T01:14:32.280Z,96855.22
2023-02-05T01:15:35.557Z,96861.00
2023-02-05T01:16:37.339Z,96867.84
2023-02-05T01:17:38.912Z,96840.00
2023-02-05T01:18:40.653Z,96858.88
2023-02-05T01:19:42.258Z,96866.22
2023-02-05T01:20:44.274Z,96864.16
2023-02-05T01:21:45.800Z,96859.16
2023-02-05T01:22:47.718Z,96853.09
2023-02-05T01:23:49.247Z,96862.53
2023-02-05T01:24:51.050Z,96867.22
2023-02-05T01:25:52.708Z,96857.03
2023-02-05T01:26:56.128Z,96856.22
2023-02-05T01:27:57.799Z,96856.72
2023-02-05T01:28:59.434Z,96859.63
2023-02-05T01:30:01.294Z,96864.06
2023-02-05T01:31:02.909Z,96861.94
2023-02-05T01:32:04.892Z,96858.03
2023-02-05T01:33:07.327Z,96865.66
2023-02-05T01:34:09.041Z,96858.06
2023-02-05T01:35:10.604Z,96866.69
2023-02-05T01:36:12.131Z,96868.78
2023-02-05T01:37:13.707Z,96866.16
2023-02-05T01:38:15.624Z,96863.03
2023-02-05T01:39:17.231Z,96857.22
2023-02-05T01:40:19.506Z,96862.47
2023-02-05T01:41:21.055Z,96860.34
2023-02-05T01:42:28.368Z,96847.72
2023-02-05T01:43:29.919Z,96862.94
2023-02-05T01:44:31.790Z,96859.22
2023-02-05T01:45:51.054Z,96842.97
2023-02-05T01:46:54.202Z,96841.91
2023-02-05T01:47:57.826Z,96859.75
2023-02-05T01:49:00.700Z,96849.75
2023-02-05T01:50:02.257Z,96850.50
2023-02-05T01:51:08.992Z,96861.28
2023-02-05T01:52:15.952Z,96864.44
2023-02-05T01:53:27.913Z,96846.56
2023-02-05T01:54:33.401Z,96865.47
2023-02-05T01:55:38.581Z,96859.94
2023-02-05T01:56:44.984Z,96849.44
2023-02-05T01:57:48.477Z,96863.38
2023-02-05T01:58:56.370Z,96860.22
2023-02-05T01:59:58.584Z,96852.34
2023-02-05T02:01:00.381Z,96862.28
2023-02-05T02:02:06.515Z,96864.97
2023-02-05T02:03:09.995Z,96865.50
2023-02-05T02:04:15.462Z,96868.66
2023-02-05T02:05:19.758Z,96874.94
2023-02-05T02:06:21.339Z,96868.66
2023-02-05T02:07:24.882Z,96859.47
2023-02-05T02:08:26.838Z,96861.53
2023-02-05T02:09:28.639Z,96858.63
2023-02-05T02:10:31.844Z,96865.47
2023-02-05T02:11:38.190Z,96854.44
2023-02-05T02:12:41.744Z,96854.16
2023-02-05T02:13:46.165Z,96837.31
2023-02-05T02:14:51.415Z,96845.97
2023-02-05T02:15:53.412Z,96849.69
2023-02-05T02:16:55.996Z,96828.94
2023-02-05T02:18:22.109Z,96855.41
2023-02-05T02:19:32.632Z,96859.59
2023-02-05T02:20:37.855Z,96855.38
2023-02-05T02:22:00.059Z,96865.38
2023-02-05T02:23:14.561Z,96859.59
2023-02-05T02:24:34.696Z,96865.63
2023-02-05T02:25:48.575Z,96856.72
2023-02-05T02:27:11.647Z,96864.31
2023-02-05T02:28:24.538Z,96863.56
2023-02-05T02:29:41.936Z,96861.47
2023-02-05T02:31:00.931Z,96872.75
2023-02-05T02:32:19.158Z,96874.03
2023-02-05T02:33:32.642Z,96870.09
2023-02-05T02:34:41.552Z,96866.91
2023-02-05T02:36:08.973Z,96863.25
2023-02-05T02:37:48.115Z,96877.72
2023-02-05T02:39:00.781Z,96860.06
2023-02-05T02:40:09.035Z,96864.56
2023-02-05T02:41:30.090Z,96874.25
2023-02-05T02:42:39.022Z,96868.50
2023-02-05T02:43:43.554Z,96870.09
2023-02-05T02:44:52.970Z,96861.66
2023-02-05T02:46:05.665Z,96855.03
2023-02-05T02:47:15.782Z,96867.84
2023-02-05T02:48:22.320Z,96863.16
2023-02-05T02:49:30.713Z,96872.06
2023-02-05T02:50:36.191Z,96867.56
2023-02-05T02:51:39.826Z,96867.31
2023-02-05T02:52:45.662Z,96856.81
2023-02-05T02:53:50.600Z,96848.94
2023-02-05T02:54:56.359Z,96871.78
2023-02-05T02:56:00.169Z,96876.84
2023-02-05T02:57:05.962Z,96857.91
2023-02-05T02:58:13.163Z,96867.13
2023-02-05T02:59:22.182Z,96858.19
2023-02-05T03:00:26.901Z,96860.03
2023-02-05T03:01:34.913Z,96853.44
2023-02-05T03:02:38.320Z,96857.41
2023-02-05T03:03:49.510Z,96864.25
2023-02-05T03:04:59.706Z,96848.53
2023-02-05T03:06:04.177Z,96848.00
2023-02-05T03:07:18.438Z,96843.81
2023-02-05T03:08:27.771Z,96842.00
2023-02-05T03:09:43.188Z,96843.28
2023-02-05T03:11:01.323Z,96847.78
2023-02-05T03:12:03.584Z,96826.00
2023-02-05T03:13:05.416Z,96842.84
2023-02-05T03:14:07.108Z,96828.66
2023-02-05T03:15:10.151Z,96841.28
2023-02-05T03:16:12.922Z,96835.47
2023-02-05T03:17:18.726Z,96842.84
2023-02-05T03:18:20.634Z,96833.91
2023-02-05T03:19:22.232Z,96829.75
2023-02-05T03:20:31.054Z,96816.59
2023-02-05T03:21:41.318Z,96824.19
2023-02-05T03:22:42.907Z,96835.47
2023-02-05T03:23:45.526Z,96836.03
2023-02-05T03:24:47.228Z,96816.59
2023-02-05T03:25:49.107Z,96841.28
2023-02-05T03:26:50.674Z,96826.56
2023-02-05T03:27:54.019Z,96797.16
2023-02-05T03:28:58.346Z,96823.94
2023-02-05T03:30:00.880Z,96817.66
2023-02-05T03:31:16.592Z,96835.47
2023-02-05T03:32:50.470Z,96829.44
2023-02-05T03:34:10.409Z,96832.31
2023-02-05T03:35:32.067Z,96824.44
2023-02-05T03:36:33.618Z,96833.91
2023-02-05T03:37:47.524Z,96797.63
2023-02-05T03:39:18.167Z,96815.75
2023-02-05T03:40:31.388Z,96800.50
2023-02-05T03:41:57.372Z,96815.50
2023-02-05T03:43:11.010Z,96792.91
2023-02-05T03:44:31.237Z,96803.88
2023-02-05T03:45:38.852Z,96810.72
2023-02-05T03:46:59.448Z,96815.97
2023-02-05T03:48:38.640Z,96821.22
2023-02-05T03:49:53.618Z,96809.69
2023-02-05T03:51:07.026Z,96791.31
2023-02-05T03:52:25.823Z,96775.75
2023-02-05T03:54:17.474Z,96808.81
2023-02-05T03:55:25.037Z,96798.56
2023-02-05T03:56:33.753Z,96830.84
2023-02-05T03:57:45.792Z,96820.59
2023-02-05T03:58:51.588Z,96814.31
2023-02-05T03:59:54.371Z,96798.31
2023-02-05T04:00:55.959Z,96819.31
2023-02-05T04:01:57.820Z,96837.47
2023-02-05T04:02:59.439Z,96823.53
2023-02-05T04:04:01.302Z,96781.22
2023-02-05T04:05:03.052Z,96801.13
2023-02-05T04:06:05.351Z,96825.75
2023-02-05T04:07:07.360Z,96829.44
2023-02-05T04:08:08.950Z,96840.47
2023-02-05T04:09:11.402Z,96825.25
2023-02-05T04:10:12.966Z,96793.19
2023-02-05T04:11:14.626Z,96817.31
2023-02-05T04:12:16.286Z,96841.97
2023-02-05T04:13:17.835Z,96834.06
2023-02-05T04:14:19.378Z,96851.88
2023-02-05T04:15:20.970Z,96837.13
2023-02-05T04:16:22.597Z,96828.72
2023-02-05T04:17:24.159Z,96832.38
2023-02-05T04:18:25.724Z,96824.69
2023-02-05T04:19:27.287Z,96833.34
2023-02-05T04:20:28.993Z,96841.22
2023-02-05T04:21:30.589Z,96818.13
2023-02-05T04:22:32.424Z,96814.94
2023-02-05T04:23:33.959Z,96839.63
2023-02-05T04:24:35.496Z,96815.44
2023-02-05T04:25:38.526Z,96787.56
2023-02-05T04:26:40.120Z,96784.34
2023-02-05T04:27:41.692Z,96842.53
2023-02-05T04:28:43.264Z,96814.94
2023-02-05T04:29:44.845Z,96838.78
2023-02-05T04:30:46.533Z,96825.09
2023-02-05T04:31:48.155Z,96833.53
2023-02-05T04:32:49.846Z,96803.34
2023-02-05T04:33:51.440Z,96828.75
2023-02-05T04:34:53.269Z,96829.56
2023-02-05T04:35:58.951Z,96821.63
2023-02-05T04:37:00.598Z,96829.50
2023-02-05T04:38:02.208Z,96808.00
2023-02-05T04:39:03.979Z,96843.63
2023-02-05T04:40:06.435Z,96802.44
2023-02-05T04:41:08.284Z,96797.19
2023-02-05T04:42:09.888Z,96820.25
2023-02-05T04:43:11.452Z,96834.38
2023-02-05T04:44:13.033Z,96844.38
2023-02-05T04:45:14.674Z,96834.94
2023-02-05T04:46:16.444Z,96816.91
2023-02-05T04:47:18.017Z,96824.19
2023-02-05T04:48:21.245Z,96828.66
2023-02-05T04:49:22.899Z,96829.72
2023-02-05T04:50:24.455Z,96835.97
2023-02-05T04:51:26.092Z,96844.88
2023-02-05T04:52:27.786Z,96838.03
2023-02-05T04:53:29.675Z,96808.19
2023-02-05T04:54:31.725Z,96832.34
2023-02-05T04:55:33.789Z,96816.59
2023-02-05T04:56:35.512Z,96831.22
2023-02-05T04:57:37.273Z,96832.81
2023-02-05T04:58:39.610Z,96840.13
2023-02-05T04:59:41.201Z,96820.72
2023-02-05T05:00:42.756Z,96817.06
2023-02-05T05:01:44.363Z,96849.09
2023-02-05T05:02:45.959Z,96834.38
2023-02-05T05:03:47.724Z,96840.19
2023-02-05T05:04:49.280Z,96838.59
2023-02-05T05:05:50.837Z,96831.53
2023-02-05T05:06:52.385Z,96835.97
2023-02-05T05:07:56.152Z,96848.06
2023-02-05T05:08:57.734Z,96853.31
2023-02-05T05:09:59.258Z,96844.38
2023-02-05T05:11:06.340Z,96827.88
2023-02-05T05:12:08.281Z,96855.59
2023-02-05T05:13:09.873Z,96846.47
2023-02-05T05:14:11.393Z,96844.09
2023-02-05T05:15:13.033Z,96849.31
2023-02-05T05:16:14.733Z,96835.19
2023-02-05T05:17:16.311Z,96825.19
2023-02-05T05:18:17.848Z,96844.88
2023-02-05T05:19:19.450Z,96832.34
2023-02-05T05:20:21.064Z,96828.34
2023-02-05T05:21:22.618Z,96861.16
2023-02-05T05:22:24.202Z,96850.91
2023-02-05T05:23:25.764Z,96835.97
2023-02-05T05:24:27.342Z,96852.25
2023-02-05T05:25:28.866Z,96863.78
2023-02-05T05:26:30.410Z,96866.41
2023-02-05T05:27:31.973Z,96856.97
2023-02-05T05:28:34.898Z,96851.22
2023-02-05T05:29:36.841Z,96849.63
2023-02-05T05:30:39.643Z,96843.63
2023-02-05T05:31:42.282Z,96827.56
2023-02-05T05:32:43.877Z,96835.19
2023-02-05T05:33:45.803Z,96854.09
2023-02-05T05:34:47.342Z,96862.19
2023-02-05T05:35:48.846Z,96846.94
2023-02-05T05:36:50.442Z,96854.34
2023-02-05T05:37:51.996Z,96849.31
2023-02-05T05:38:53.563Z,96858.00
2023-02-05T05:40:13.390Z,96834.94
2023-02-05T05:41:39.964Z,96863.47
2023-02-05T05:43:00.017Z,96849.03
2023-02-05T05:44:01.600Z,96861.09
2023-02-05T05:45:03.538Z,96877.06
2023-02-05T05:46:06.777Z,96873.66
2023-02-05T05:47:08.392Z,96861.09
2023-02-05T05:48:09.996Z,96863.16
2023-02-05T05:49:12.517Z,96865.84
2023-02-05T05:50:14.293Z,96874.44
2023-02-05T05:51:15.859Z,96864.25
2023-02-05T05:52:17.631Z,96890.81
2023-02-05T05:53:19.227Z,96863.78
2023-02-05T05:54:20.777Z,96897.38
2023-02-05T05:55:22.346Z,96889.50
2023-02-05T05:56:24.184Z,96891.56
2023-02-05T05:57:26.138Z,96873.72
2023-02-05T05:58:27.707Z,96890.47
2023-02-05T05:59:29.427Z,96890.81
2023-02-05T06:00:31.523Z,96887.63
2023-02-05T06:01:33.475Z,96884.19
2023-02-05T06:02:40.270Z,96891.56
2023-02-05T06:03:41.925Z,96875.31
2023-02-05T06:04:43.587Z,96896.81
2023-02-05T06:05:45.291Z,96889.50
2023-02-05T06:06:46.867Z,96864.81
2023-02-05T06:07:48.412Z,96899.38
2023-02-05T06:08:49.999Z,96905.16
2023-02-05T06:09:51.567Z,96892.38
2023-02-05T06:10:53.182Z,96895.78
2023-02-05T06:11:54.994Z,96886.88
2023-02-05T06:12:57.794Z,96913.34
2023-02-05T06:13:59.407Z,96900.00
2023-02-05T06:15:00.993Z,96888.94
2023-02-05T06:16:03.756Z,96901.28
2023-02-05T06:17:05.320Z,96889.75
2023-02-05T06:18:06.909Z,96917.56
2023-02-05T06:19:08.655Z,96914.69
2023-02-05T06:20:10.970Z,96893.97
2023-02-05T06:21:12.614Z,96892.69
2023-02-05T06:22:14.489Z,96898.41
2023-02-05T06:23:16.084Z,96898.41
2023-02-05T06:24:17.633Z,96899.44
2023-02-05T06:25:19.482Z,96901.59
2023-02-05T06:26:21.027Z,96899.50
2023-02-05T06:27:22.749Z,96900.56
2023-02-05T06:28:24.652Z,96904.28
2023-02-05T06:29:26.200Z,96924.53
2023-02-05T06:30:27.908Z,96912.50
2023-02-05T06:31:32.403Z,96912.78
2023-02-05T06:32:33.972Z,96918.84
2023-02-05T06:33:35.577Z,96933.59
2023-02-05T06:34:37.126Z,96907.38
2023-02-05T06:35:39.849Z,96906.13
2023-02-05T06:36:41.358Z,96925.50
2023-02-05T06:37:47.532Z,96917.41
2023-02-05T06:38:49.389Z,96919.22
2023-02-05T06:39:51.360Z,96926.06
2023-02-05T06:40:52.924Z,96930.25
2023-02-05T06:41:54.479Z,96923.25
2023-02-05T06:42:56.130Z,96947.69
2023-02-05T06:43:57.660Z,96937.78
2023-02-05T06:44:59.257Z,96944.06
2023-02-05T06:46:00.962Z,96943.56
2023-02-05T06:47:02.624Z,96945.94
2023-02-05T06:48:04.299Z,96944.91
2023-02-05T06:49:05.848Z,96948.31
2023-02-05T06:50:07.585Z,96939.91
2023-02-05T06:51:09.133Z,96940.41
2023-02-05T06:52:10.699Z,96955.34
2023-02-05T06:53:12.285Z,96925.69
2023-02-05T06:54:13.845Z,96952.78
2023-02-05T06:55:15.528Z,96972.59
2023-02-05T06:56:17.067Z,96971.16
2023-02-05T06:57:18.597Z,96955.97
2023-02-05T06:58:20.136Z,96959.69
2023-02-05T06:59:21.920Z,96965.50
2023-02-05T07:00:23.559Z,96952.81
2023-02-05T07:01:25.142Z,96928.88
2023-02-05T07:02:26.953Z,96925.97
2023-02-05T07:03:28.558Z,96943.00
2023-02-05T07:04:33.069Z,96940.13
2023-02-05T07:05:35.058Z,96940.63
2023-02-05T07:06:37.393Z,96918.66
2023-02-05T07:07:39.717Z,96956.97
2023-02-05T07:08:41.326Z,96949.81
2023-02-05T07:09:43.663Z,96968.47
2023-02-05T07:10:45.282Z,96958.44
2023-02-05T07:11:46.832Z,96941.16
2023-02-05T07:12:48.360Z,96968.75
2023-02-05T07:13:49.960Z,96966.97
2023-02-05T07:14:51.559Z,96963.00
2023-02-05T07:15:53.135Z,96971.16
2023-02-05T07:16:54.685Z,96958.56
2023-02-05T07:17:56.287Z,96948.38
2023-02-05T07:18:58.805Z,96960.69
2023-02-05T07:20:00.418Z,96965.91
2023-02-05T07:21:06.414Z,96967.97
2023-02-05T07:22:08.041Z,96975.88
2023-02-05T07:23:09.636Z,96972.53
2023-02-05T07:24:11.232Z,96972.75
2023-02-05T07:25:13.669Z,96954.38
2023-02-05T07:26:17.217Z,96946.56
2023-02-05T07:27:18.779Z,96970.75
2023-02-05T07:28:20.347Z,96969.16
2023-02-05T07:29:21.971Z,96979.97
2023-02-05T07:30:23.497Z,96961.34
2023-02-05T07:31:25.083Z,96973.09
2023-02-05T07:32:26.680Z,96963.06
2023-02-05T07:33:28.239Z,96947.00
2023-02-05T07:34:29.791Z,96939.66
2023-02-05T07:35:33.011Z,96946.47
2023-02-05T07:36:34.713Z,96973.38
2023-02-05T07:37:37.877Z,96955.09
2023-02-05T07:38:39.902Z,96970.47
2023-02-05T07:39:41.870Z,96967.97
2023-02-05T07:40:43.406Z,96963.22
2023-02-05T07:41:45.046Z,96963.03
2023-02-05T07:42:46.632Z,96957.00
2023-02-05T07:43:51.823Z,96954.88
2023-02-05T07:44:53.376Z,96980.88
2023-02-05T07:46:03.747Z,96993.56
2023-02-05T07:47:05.459Z,96973.13
2023-02-05T07:48:07.032Z,96986.53
2023-02-05T07:49:08.638Z,97002.31
2023-02-05T07:50:10.534Z,97001.88
2023-02-05T07:51:21.381Z,97010.81
2023-02-05T07:52:22.978Z,96999.75
2023-02-05T07:53:25.258Z,96990.75
2023-02-05T07:54:26.902Z,96995.00
2023-02-05T07:55:28.481Z,96996.63
2023-02-05T07:56:30.700Z,96974.72
2023-02-05T07:57:32.315Z,96974.38
2023-02-05T07:58:33.887Z,96976.22
2023-02-05T07:59:35.408Z,97004.38
2023-02-05T08:00:37.054Z,96977.00
2023-02-05T08:01:38.628Z,96957.53
2023-02-05T08:02:40.370Z,96982.75
2023-02-05T08:03:42.935Z,96990.69
2023-02-05T08:04:44.591Z,96970.16
2023-02-05T08:05:46.146Z,96988.56
2023-02-05T08:06:47.737Z,96993.84
2023-02-05T08:07:49.739Z,97007.03
2023-02-05T08:08:51.348Z,97006.06
2023-02-05T08:09:52.910Z,96995.03
2023-02-05T08:11:03.133Z,97004.56
2023-02-05T08:12:05.452Z,97007.41
2023-02-05T08:13:06.971Z,96976.59
2023-02-05T08:14:08.607Z,96994.69
2023-02-05T08:15:10.296Z,96998.59
2023-02-05T08:16:15.791Z,96979.13
2023-02-05T08:17:17.473Z,96999.13
2023-02-05T08:18:19.049Z,97006.06
2023-02-05T08:19:20.687Z,97001.38
2023-02-05T08:20:22.524Z,96995.06
2023-02-05T08:21:24.925Z,96976.63
2023-02-05T08:22:26.490Z,96984.03
2023-02-05T08:23:28.363Z,97007.41
2023-02-05T08:24:32.345Z,97013.75
2023-02-05T08:25:34.148Z,97018.72
2023-02-05T08:26:36.455Z,96993.44
2023-02-05T08:27:40.090Z,97010.56
2023-02-05T08:28:43.155Z,97001.97
2023-02-05T08:29:47.871Z,97020.16
2023-02-05T08:30:49.567Z,97014.91
2023-02-05T08:31:51.328Z,96988.34
2023-02-05T08:32:52.899Z,96982.31
2023-02-05T08:33:56.533Z,96970.50
2023-02-05T08:34:59.056Z,97009.69
2023-02-05T08:36:00.649Z,97019.94
2023-02-05T08:37:02.254Z,97016.81
2023-02-05T08:38:03.866Z,97024.00
2023-02-05T08:39:05.453Z,97026.59
2023-02-05T08:40:07.560Z,97037.91
2023-02-05T08:41:13.585Z,97015.75
2023-02-05T08:42:15.124Z,97029.19
2023-02-05T08:43:16.695Z,97037.25
2023-02-05T08:44:18.238Z,97036.28
2023-02-05T08:45:20.046Z,97026.84
2023-02-05T08:46:28.202Z,97025.75
2023-02-05T08:47:33.304Z,97036.78
2023-02-05T08:48:34.904Z,97035.78
2023-02-05T08:49:38.275Z,97022.13
2023-02-05T08:50:39.998Z,97001.34
2023-02-05T08:51:41.542Z,97018.94
2023-02-05T08:52:43.074Z,97028.22
2023-02-05T08:53:44.733Z,97038.94
2023-02-05T08:54:48.082Z,97005.31
2023-02-05T08:55:58.092Z,97013.16
2023-02-05T08:57:00.121Z,97037.09
2023-02-05T08:58:01.686Z,97032.41
2023-02-05T08:59:03.455Z,97034.75
2023-02-05T09:00:06.222Z,97039.81
2023-02-05T09:01:13.798Z,97037.47
2023-02-05T09:02:15.846Z,96994.34
2023-02-05T09:03:17.415Z,97018.53
2023-02-05T09:04:22.150Z,97027.47
2023-02-05T09:05:23.747Z,97033.75
2023-02-05T09:06:25.621Z,97039.56
2023-02-05T09:07:27.197Z,97036.47
2023-02-05T09:08:31.002Z,97040.97
2023-02-05T09:09:34.954Z,97021.75
2023-02-05T09:10:36.647Z,97048.03
2023-02-05T09:11:38.663Z,97027.78
2023-02-05T09:12:40.661Z,97037.03
2023-02-05T09:13:42.225Z,97040.69
2023-02-05T09:14:43.816Z,97021.25
2023-02-05T09:15:48.585Z,97027.03
2023-02-05T09:16:50.314Z,96996.22
2023-02-05T09:17:51.953Z,97035.38
2023-02-05T09:18:58.403Z,97024.03
2023-02-05T09:20:00.044Z,97030.34
2023-02-05T09:21:07.009Z,97009.56
2023-02-05T09:22:09.068Z,97031.13
2023-02-05T09:23:12.390Z,97035.34
2023-02-05T09:24:13.966Z,97026.44
2023-02-05T09:25:15.487Z,97043.84
2023-02-05T09:26:17.079Z,97026.44
2023-02-05T09:27:18.619Z,97021.69
2023-02-05T09:28:20.232Z,97016.97
2023-02-05T09:29:21.915Z,97040.91
2023-02-05T09:30:23.459Z,97042.78
2023-02-05T09:31:25.313Z,97013.31
2023-02-05T09:32:26.897Z,97036.38
2023-02-05T09:33:28.408Z,97050.63
2023-02-05T09:34:32.190Z,97055.88
2023-02-05T09:35:35.148Z,97019.63
2023-02-05T09:36:36.942Z,97053.22
2023-02-05T09:37:39.283Z,97060.03
2023-02-05T09:38:41.654Z,97058.47
2023-02-05T09:40:18.933Z,97024.00
2023-02-05T09:41:13.996Z,97047.94
2023-02-05T09:43:20.150Z,97014.84
2023-02-05T09:44:38.142Z,97061.66
2023-02-05T09:45:57.845Z,97050.19
2023-02-05T09:47:15.923Z,97034.13
2023-02-05T09:48:23.865Z,97060.91
2023-02-05T09:49:29.882Z,97028.06
2023-02-05T09:50:32.172Z,97033.75
2023-02-05T09:51:37.481Z,97024.03
2023-02-05T09:52:44.961Z,97051.13
2023-02-05T09:53:55.479Z,97035.88
2023-02-05T09:55:22.758Z,97051.38
2023-02-05T09:56:26.768Z,97022.72
2023-02-05T09:57:36.024Z,97050.34
2023-02-05T09:58:44.154Z,97037.50
2023-02-05T09:59:47.610Z,97046.50
2023-02-05T10:00:53.776Z,97038.38
2023-02-05T10:01:58.600Z,97050.25
2023-02-05T10:03:41.874Z,97052.91
2023-02-05T10:04:43.594Z,97017.19
2023-02-05T10:06:05.068Z,97030.81
2023-02-05T10:07:33.398Z,97049.50
2023-02-05T10:08:46.596Z,97040.47
2023-02-05T10:10:22.434Z,97030.44
2023-02-05T10:11:43.300Z,97053.38
2023-02-05T10:13:01.117Z,97043.16
2023-02-05T10:14:25.042Z,97022.34
2023-02-05T10:15:50.149Z,97041.50
2023-02-05T10:17:07.271Z,97031.16
2023-02-05T10:18:23.329Z,97020.84
2023-02-05T10:19:47.409Z,97037.44
2023-02-05T10:21:04.158Z,97023.53
2023-02-05T10:22:28.666Z,97022.53
2023-02-05T10:23:53.173Z,97034.44
2023-02-05T10:25:47.518Z,97023.91
2023-02-05T10:26:52.173Z,97001.78
2023-02-05T10:28:22.412Z,97010.97
2023-02-05T10:29:50.630Z,97035.50
2023-02-05T10:30:55.303Z,97002.41
2023-02-05T10:31:56.929Z,97019.19
2023-02-05T10:33:05.382Z,97041.31
2023-02-05T10:34:22.011Z,97009.50
2023-02-05T10:35:49.860Z,97018.25
2023-02-05T10:36:53.558Z,97035.16
2023-02-05T10:37:57.730Z,97025.69
2023-02-05T10:39:01.627Z,96969.31
2023-02-05T10:40:12.045Z,97004.06
2023-02-05T10:41:30.364Z,97034.38
2023-02-05T10:42:36.305Z,97032.50
2023-02-05T10:43:43.796Z,97017.28
2023-02-05T10:44:48.977Z,97018.63
2023-02-05T10:45:52.148Z,97021.28
2023-02-05T10:47:01.656Z,96999.41
2023-02-05T10:48:13.438Z,97013.91
2023-02-05T10:49:42.647Z,97014.19
2023-02-05T10:51:06.795Z,97013.69
2023-02-05T10:52:12.730Z,97013.16
2023-02-05T10:53:19.898Z,97010.00
2023-02-05T10:54:33.677Z,97014.97
2023-02-05T10:55:37.214Z,96971.53
2023-02-05T10:56:38.788Z,97012.59
2023-02-05T10:57:40.705Z,96987.88
2023-02-05T10:58:57.081Z,96997.91
2023-02-05T11:00:02.281Z,97009.75
2023-02-05T11:01:05.716Z,97003.72
2023-02-05T11:02:09.746Z,96999.16
2023-02-05T11:03:18.378Z,96995.75
2023-02-05T11:04:31.050Z,96988.31
2023-02-05T11:05:39.028Z,96987.03
2023-02-05T11:06:44.615Z,96996.25
2023-02-05T11:07:49.034Z,97015.72
2023-02-05T11:08:50.809Z,96999.41
2023-02-05T11:09:52.405Z,96973.59
2023-02-05T11:10:54.262Z,97017.28
2023-02-05T11:12:02.232Z,97026.25
2023-02-05T11:13:12.552Z,97013.09
2023-02-05T11:14:25.023Z,97009.16
2023-02-05T11:15:28.961Z,97005.75
2023-02-05T11:16:40.982Z,97010.50
2023-02-05T11:17:42.671Z,96993.13
2023-02-05T11:18:47.366Z,97005.75
2023-02-05T11:19:59.073Z,97004.41
2023-02-05T11:21:04.257Z,97004.91
2023-02-05T11:22:05.967Z,97002.53
2023-02-05T11:23:21.620Z,97011.00
2023-02-05T11:24:30.006Z,97008.34
2023-02-05T11:25:31.638Z,96984.38
2023-02-05T11:26:33.192Z,96991.22
2023-02-05T11:27:35.968Z,96969.41
2023-02-05T11:28:41.863Z,96981.75
2023-02-05T11:29:43.844Z,96998.03
2023-02-05T11:30:51.806Z,97018.34
2023-02-05T11:31:54.103Z,96983.63
2023-02-05T11:32:55.696Z,96962.56
2023-02-05T11:34:09.554Z,97007.28
2023-02-05T11:35:18.345Z,97040.44
2023-02-05T11:36:24.090Z,97018.91
2023-02-05T11:37:25.668Z,96991.53
2023-02-05T11:39:01.455Z,97007.03
2023-02-05T11:40:03.395Z,97030.00
2023-02-05T11:41:07.919Z,97016.34
2023-02-05T11:42:25.090Z,96997.41
2023-02-05T11:43:30.450Z,97004.78
2023-02-05T11:44:32.342Z,97005.00
2023-02-05T11:45:37.824Z,96988.44
2023-02-05T11:46:44.201Z,96992.09
2023-02-05T11:47:46.150Z,96971.00
2023-02-05T11:48:56.079Z,97007.06
2023-02-05T11:49:59.285Z,96989.97
2023-02-05T11:51:03.574Z,97002.56
2023-02-05T11:52:11.053Z,96985.72
2023-02-05T11:53:16.558Z,97012.59
2023-02-05T11:54:27.149Z,97005.00
2023-02-05T11:55:31.940Z,97006.84
2023-02-05T11:56:33.548Z,96984.16
2023-02-05T11:57:39.106Z,97006.53
2023-02-05T11:58:40.739Z,97005.22
2023-02-05T11:59:44.643Z,96991.25
2023-02-05T12:00:59.802Z,97026.25
2023-02-05T12:02:25.143Z,97017.91
2023-02-05T12:03:31.474Z,96997.09
2023-02-05T12:04:44.133Z,97008.41
2023-02-05T12:05:54.508Z,97026.88
2023-02-05T12:07:03.565Z,97008.41
2023-02-05T12:08:30.035Z,97009.47
2023-02-05T12:09:31.636Z,97026.63
2023-02-05T12:10:38.088Z,97027.44
2023-02-05T12:11:58.038Z,97011.84
2023-02-05T12:12:59.497Z,96963.91
2023-02-05T12:14:18.265Z,97008.84
2023-02-05T12:15:28.958Z,97021.00
2023-02-05T12:16:54.296Z,96991.81
2023-02-05T12:18:20.520Z,96990.47
2023-02-05T12:19:34.432Z,96992.56
2023-02-05T12:20:47.416Z,97031.00
2023-02-05T12:22:01.462Z,97025.16
2023-02-05T12:23:32.811Z,97026.78
2023-02-05T12:25:11.511Z,97023.56
2023-02-05T12:26:34.032Z,97042.06
2023-02-05T12:27:53.770Z,97016.28
2023-02-05T12:29:16.843Z,97023.59
2023-02-05T12:31:15.807Z,97047.78
2023-02-05T12:32:27.566Z,97049.41
2023-02-05T12:33:41.040Z,97045.16
2023-02-05T12:35:19.864Z,97046.22
2023-02-05T12:36:38.689Z,97012.50
2023-02-05T12:37:58.453Z,97010.31
2023-02-05T12:39:12.093Z,97000.03
2023-02-05T12:40:27.679Z,97000.81
2023-02-05T12:41:51.113Z,97050.81
2023-02-05T12:43:29.178Z,97038.44
2023-02-05T12:44:44.210Z,97051.31
2023-02-05T12:46:01.135Z,97051.34
2023-02-05T12:47:24.012Z,97046.66
2023-02-05T12:48:52.797Z,97041.41
2023-02-05T12:50:21.864Z,97048.25
2023-02-05T12:51:32.529Z,97041.91
2023-02-05T12:53:03.120Z,97039.25
2023-02-05T12:54:22.945Z,97026.56
2023-02-05T12:55:50.642Z,97003.34